Etusivu
METAR-TAF:

METAR-TAF

Lentoasemat :

Vágarin lentoasema

Sørvágur, Färsaaret, Tanska

Leveyspiiri: 62-04N, Pituuspiiri: 007-17W, korkeus merenpinnasta: 85 m

Tämänhetkinen sää

Tämä raportti tehtiin 31 minuuttia sitten, kello 19.50 UTC
Tuuli 9 kn lounaasta
Lämpötila 11°C
Kosteus 94%
Ilmanpaine 1010 hPa
Näkyvyys 10 km tai enemmän

METAR: EKVG 221950Z AUTO 23009KT 9999 BKN006/// 11/10 Q1010 RMK BKN010/// BKN071/// WIND SKEID 26011KT 210V300

Aika: 22:21 (20:21 UTC)

Sääennuste

Tämä raportti tehtiin 6 tuntia ja 0 minuuttia sitten, kello 14.21 UTC
Ennuste voimassa 22. päivästä klo 15 UTC - 22. päivään klo 21 UTC
Tuuli 12 kn etelästä
Näkyvyys 10 km tai enemmän
Hajonneita pilviä 1000 ft:n korkeudessa
Ajoittain
22. päivästä klo 19 UTC - 22. päivään klo 21 UTC
Näkyvyys: 4000 m
Pilvistä 500 ft:n korkeudessa
heikkoa tihkusadetta, utua,

TAF: EKVG 221421Z 2215/2221 19012KT 9999 BKN010 TEMPO 2219/2221 4000 -DZ BR OVC005

Säähavainnot ja -ennusteet yli 4000 lentoasemalta (METAR- ja TAF-raportit).

Käytössä olevat sääasemat on merkitty karttaan keltaisilla ja punaisilla pisteillä.

Aseta hiiri pisteen päälle nähdäksesi sääaseman nimen.

Klikkaa sitten nähdäksesi säähavainnot ja -ennusteet.

Kartan vaihtaminen: klikkaa mustalla rastilla varustettuja vihreitä pisteitä, niin voit zoomata sisään; viivalla varustettua vihreää pistettä, niin voit zoomata ulos tai vihreitä nuolia, niin pääset viereisille kartoille.


METAR-TAF: